sensor_id;sensor_type;location;lat;lon;timestamp;pressure;altitude;pressure_sealevel;temperature;humidity
18527;BME280;9393;42.158;24.748;2022-09-29T00:01:35;98582.47;;;21.08;58.07
18527;BME280;9393;42.158;24.748;2022-09-29T00:04:39;98568.53;;;21.01;58.48
18527;BME280;9393;42.158;24.748;2022-09-29T00:07:42;98575.44;;;21.25;57.81
18527;BME280;9393;42.158;24.748;2022-09-29T00:10:47;98565.78;;;21.19;57.71
18527;BME280;9393;42.158;24.748;2022-09-29T00:13:50;98571.75;;;21.26;57.27
18527;BME280;9393;42.158;24.748;2022-09-29T00:16:53;98568.66;;;21.17;57.69
18527;BME280;9393;42.158;24.748;2022-09-29T00:19:57;98557.72;;;20.67;59.23
18527;BME280;9393;42.158;24.748;2022-09-29T00:23:01;98554.03;;;20.92;58.46
18527;BME280;9393;42.158;24.748;2022-09-29T00:26:07;98570.84;;;20.74;58.17
18527;BME280;9393;42.158;24.748;2022-09-29T00:29:13;98560.47;;;20.96;57.77
18527;BME280;9393;42.158;24.748;2022-09-29T00:32:16;98560.38;;;20.67;58.73
18527;BME280;9393;42.158;24.748;2022-09-29T00:35:20;98549.53;;;20.81;58.30
18527;BME280;9393;42.158;24.748;2022-09-29T00:38:23;98547.56;;;20.88;58.17
18527;BME280;9393;42.158;24.748;2022-09-29T00:41:29;98538.03;;;20.75;58.31
18527;BME280;9393;42.158;24.748;2022-09-29T00:44:54;98544.09;;;20.87;57.89
18527;BME280;9393;42.158;24.748;2022-09-29T00:48:03;98553.47;;;20.78;58.59
18527;BME280;9393;42.158;24.748;2022-09-29T00:51:08;98544.81;;;20.71;58.73
18527;BME280;9393;42.158;24.748;2022-09-29T00:54:12;98546.41;;;20.49;59.61
18527;BME280;9393;42.158;24.748;2022-09-29T00:57:19;98555.38;;;20.36;60.21
18527;BME280;9393;42.158;24.748;2022-09-29T01:00:24;98561.81;;;20.29;60.03
18527;BME280;9393;42.158;24.748;2022-09-29T01:03:30;98549.31;;;20.47;59.31
18527;BME280;9393;42.158;24.748;2022-09-29T01:06:37;98559.53;;;20.32;59.11
18527;BME280;9393;42.158;24.748;2022-09-29T01:09:42;98554.91;;;20.28;59.31
18527;BME280;9393;42.158;24.748;2022-09-29T01:12:47;98552.66;;;19.72;61.18
18527;BME280;9393;42.158;24.748;2022-09-29T01:15:51;98559.44;;;20.21;59.56
18527;BME280;9393;42.158;24.748;2022-09-29T01:18:54;98566.38;;;20.22;59.44
18527;BME280;9393;42.158;24.748;2022-09-29T01:22:02;98570.47;;;20.06;59.83
18527;BME280;9393;42.158;24.748;2022-09-29T01:25:28;98567.38;;;20.21;59.40
18527;BME280;9393;42.158;24.748;2022-09-29T01:29:11;98579.03;;;20.20;59.87
18527;BME280;9393;42.158;24.748;2022-09-29T01:32:26;98587.53;;;20.63;58.58
18527;BME280;9393;42.158;24.748;2022-09-29T01:35:36;98582.28;;;19.92;61.26
18527;BME280;9393;42.158;24.748;2022-09-29T01:38:53;98600.78;;;20.22;60.83
18527;BME280;9393;42.158;24.748;2022-09-29T01:42:02;98600.94;;;20.27;60.85
18527;BME280;9393;42.158;24.748;2022-09-29T01:45:12;98597.13;;;20.23;60.72
18527;BME280;9393;42.158;24.748;2022-09-29T01:48:23;98617.91;;;19.89;62.15
18527;BME280;9393;42.158;24.748;2022-09-29T01:51:29;98610.50;;;20.28;60.93
18527;BME280;9393;42.158;24.748;2022-09-29T01:54:43;98624.47;;;19.87;62.75
18527;BME280;9393;42.158;24.748;2022-09-29T01:57:50;98632.09;;;19.95;63.06
18527;BME280;9393;42.158;24.748;2022-09-29T02:00:57;98633.69;;;19.66;64.73
18527;BME280;9393;42.158;24.748;2022-09-29T02:04:04;98629.00;;;19.68;63.98
18527;BME280;9393;42.158;24.748;2022-09-29T02:07:15;98626.72;;;19.72;63.92
18527;BME280;9393;42.158;24.748;2022-09-29T02:10:23;98626.63;;;19.60;64.07
18527;BME280;9393;42.158;24.748;2022-09-29T02:13:29;98623.53;;;19.81;63.51
18527;BME280;9393;42.158;24.748;2022-09-29T02:16:38;98637.94;;;19.85;63.10
18527;BME280;9393;42.158;24.748;2022-09-29T02:19:44;98625.28;;;19.87;63.23
18527;BME280;9393;42.158;24.748;2022-09-29T02:22:49;98610.84;;;20.01;62.73
18527;BME280;9393;42.158;24.748;2022-09-29T02:25:53;98618.03;;;20.12;62.12
18527;BME280;9393;42.158;24.748;2022-09-29T02:29:00;98632.94;;;19.77;63.17
18527;BME280;9393;42.158;24.748;2022-09-29T02:32:05;98626.06;;;19.58;63.75
18527;BME280;9393;42.158;24.748;2022-09-29T02:35:13;98627.97;;;19.51;64.10
18527;BME280;9393;42.158;24.748;2022-09-29T02:38:24;98624.00;;;19.60;63.20
18527;BME280;9393;42.158;24.748;2022-09-29T02:41:39;98618.19;;;19.51;63.71
18527;BME280;9393;42.158;24.748;2022-09-29T02:45:00;98627.34;;;19.12;64.86
18527;BME280;9393;42.158;24.748;2022-09-29T02:48:24;98630.00;;;19.49;63.76
18527;BME280;9393;42.158;24.748;2022-09-29T02:51:35;98638.56;;;19.51;63.55
18527;BME280;9393;42.158;24.748;2022-09-29T02:54:48;98640.16;;;19.52;63.38
18527;BME280;9393;42.158;24.748;2022-09-29T02:57:59;98624.94;;;19.65;63.04
18527;BME280;9393;42.158;24.748;2022-09-29T03:01:06;98633.84;;;19.53;63.12
18527;BME280;9393;42.158;24.748;2022-09-29T03:04:10;98633.72;;;19.48;63.71
18527;BME280;9393;42.158;24.748;2022-09-29T03:07:15;98634.38;;;19.61;63.33
18527;BME280;9393;42.158;24.748;2022-09-29T03:10:18;98639.94;;;19.72;62.96
18527;BME280;9393;42.158;24.748;2022-09-29T03:13:21;98638.31;;;19.52;63.54
18527;BME280;9393;42.158;24.748;2022-09-29T03:16:24;98639.03;;;19.41;64.07
18527;BME280;9393;42.158;24.748;2022-09-29T03:19:28;98634.31;;;19.25;64.87
18527;BME280;9393;42.158;24.748;2022-09-29T03:22:33;98624.34;;;19.45;63.94
18527;BME280;9393;42.158;24.748;2022-09-29T03:25:36;98629.66;;;19.63;63.18
18527;BME280;9393;42.158;24.748;2022-09-29T03:28:39;98629.56;;;19.70;63.12
18527;BME280;9393;42.158;24.748;2022-09-29T03:31:43;98630.91;;;19.61;63.05
18527;BME280;9393;42.158;24.748;2022-09-29T03:34:47;98623.72;;;19.50;63.27
18527;BME280;9393;42.158;24.748;2022-09-29T03:37:56;98624.66;;;19.74;62.50
18527;BME280;9393;42.158;24.748;2022-09-29T03:40:59;98635.75;;;19.82;62.59
18527;BME280;9393;42.158;24.748;2022-09-29T03:44:02;98629.56;;;19.70;62.83
18527;BME280;9393;42.158;24.748;2022-09-29T03:47:06;98623.81;;;19.73;62.88
18527;BME280;9393;42.158;24.748;2022-09-29T03:50:09;98642.66;;;19.65;63.08
18527;BME280;9393;42.158;24.748;2022-09-29T03:53:14;98646.69;;;19.49;63.90
18527;BME280;9393;42.158;24.748;2022-09-29T03:56:18;98643.78;;;19.33;64.07
18527;BME280;9393;42.158;24.748;2022-09-29T03:59:21;98639.19;;;19.46;63.50
18527;BME280;9393;42.158;24.748;2022-09-29T04:02:24;98640.78;;;19.29;64.41
18527;BME280;9393;42.158;24.748;2022-09-29T04:05:28;98633.00;;;18.91;65.72
18527;BME280;9393;42.158;24.748;2022-09-29T04:08:34;98647.84;;;18.92;65.55
18527;BME280;9393;42.158;24.748;2022-09-29T04:11:38;98653.94;;;19.36;63.91
18527;BME280;9393;42.158;24.748;2022-09-29T04:14:41;98665.31;;;19.36;64.02
18527;BME280;9393;42.158;24.748;2022-09-29T04:17:44;98664.91;;;18.90;65.32
18527;BME280;9393;42.158;24.748;2022-09-29T04:20:47;98671.03;;;19.33;63.62
18527;BME280;9393;42.158;24.748;2022-09-29T04:23:52;98676.16;;;19.28;63.85
18527;BME280;9393;42.158;24.748;2022-09-29T04:26:56;98678.97;;;19.33;63.64
18527;BME280;9393;42.158;24.748;2022-09-29T04:30:00;98686.09;;;19.08;64.25
18527;BME280;9393;42.158;24.748;2022-09-29T04:33:03;98686.09;;;19.33;63.36
18527;BME280;9393;42.158;24.748;2022-09-29T04:36:06;98684.47;;;19.32;63.32
18527;BME280;9393;42.158;24.748;2022-09-29T04:39:11;98694.16;;;19.44;62.68
18527;BME280;9393;42.158;24.748;2022-09-29T04:42:14;98710.44;;;19.41;62.67
18527;BME280;9393;42.158;24.748;2022-09-29T04:45:18;98721.47;;;19.32;63.40
18527;BME280;9393;42.158;24.748;2022-09-29T04:48:21;98733.03;;;19.12;63.85
18527;BME280;9393;42.158;24.748;2022-09-29T04:51:25;98732.84;;;18.83;65.01
18527;BME280;9393;42.158;24.748;2022-09-29T04:54:31;98725.56;;;18.78;64.42
18527;BME280;9393;42.158;24.748;2022-09-29T04:57:40;98716.47;;;18.99;64.15
18527;BME280;9393;42.158;24.748;2022-09-29T05:00:44;98713.94;;;19.10;63.72
18527;BME280;9393;42.158;24.748;2022-09-29T05:03:47;98700.94;;;19.09;63.39
18527;BME280;9393;42.158;24.748;2022-09-29T05:06:50;98712.97;;;19.30;62.75
18527;BME280;9393;42.158;24.748;2022-09-29T05:09:55;98719.28;;;19.29;62.92
18527;BME280;9393;42.158;24.748;2022-09-29T05:12:58;98729.94;;;19.40;62.54
18527;BME280;9393;42.158;24.748;2022-09-29T05:16:02;98721.97;;;19.22;63.10
18527;BME280;9393;42.158;24.748;2022-09-29T05:19:06;98729.84;;;19.29;62.59
18527;BME280;9393;42.158;24.748;2022-09-29T05:22:10;98734.97;;;19.48;61.93
18527;BME280;9393;42.158;24.748;2022-09-29T05:25:15;98725.31;;;19.60;61.65
18527;BME280;9393;42.158;24.748;2022-09-29T05:28:18;98723.81;;;19.46;62.35
18527;BME280;9393;42.158;24.748;2022-09-29T05:31:21;98728.31;;;19.64;61.58
18527;BME280;9393;42.158;24.748;2022-09-29T05:34:24;98726.13;;;19.61;62.05
18527;BME280;9393;42.158;24.748;2022-09-29T05:37:28;98723.91;;;19.76;62.44
18527;BME280;9393;42.158;24.748;2022-09-29T05:40:32;98724.00;;;20.06;60.93
18527;BME280;9393;42.158;24.748;2022-09-29T05:43:38;98719.56;;;20.36;60.25
18527;BME280;9393;42.158;24.748;2022-09-29T05:46:42;98719.28;;;20.56;60.28
18527;BME280;9393;42.158;24.748;2022-09-29T05:49:45;98712.75;;;21.11;58.21
18527;BME280;9393;42.158;24.748;2022-09-29T05:52:48;98720.47;;;21.25;57.54
18527;BME280;9393;42.158;24.748;2022-09-29T05:55:55;98710.06;;;21.70;56.83
18527;BME280;9393;42.158;24.748;2022-09-29T05:58:58;98702.19;;;21.98;55.78
18527;BME280;9393;42.158;24.748;2022-09-29T06:02:02;98705.13;;;22.25;55.51
18527;BME280;9393;42.158;24.748;2022-09-29T06:05:06;98703.97;;;22.49;54.78
18527;BME280;9393;42.158;24.748;2022-09-29T06:08:09;98704.94;;;22.71;54.96
18527;BME280;9393;42.158;24.748;2022-09-29T06:11:16;98700.34;;;22.83;53.75
18527;BME280;9393;42.158;24.748;2022-09-29T06:14:20;98691.81;;;23.14;52.80
18527;BME280;9393;42.158;24.748;2022-09-29T06:17:23;98692.78;;;23.08;53.69
18527;BME280;9393;42.158;24.748;2022-09-29T06:20:27;98687.09;;;23.55;52.28
18527;BME280;9393;42.158;24.748;2022-09-29T06:23:30;98685.38;;;23.87;50.83
18527;BME280;9393;42.158;24.748;2022-09-29T06:26:35;98686.94;;;23.83;50.83
18527;BME280;9393;42.158;24.748;2022-09-29T06:29:38;98690.88;;;24.24;49.60
18527;BME280;9393;42.158;24.748;2022-09-29T06:32:42;98696.03;;;24.57;49.14
18527;BME280;9393;42.158;24.748;2022-09-29T06:35:45;98700.50;;;24.52;49.49
18527;BME280;9393;42.158;24.748;2022-09-29T06:39:08;98697.16;;;24.61;49.21
18527;BME280;9393;42.158;24.748;2022-09-29T06:42:13;98693.28;;;24.79;48.43
18527;BME280;9393;42.158;24.748;2022-09-29T06:45:17;98697.16;;;24.88;48.86
18527;BME280;9393;42.158;24.748;2022-09-29T06:48:23;98698.72;;;24.84;48.03
18527;BME280;9393;42.158;24.748;2022-09-29T06:51:26;98702.56;;;24.72;48.49
18527;BME280;9393;42.158;24.748;2022-09-29T06:54:45;98704.63;;;25.23;47.86
18527;BME280;9393;42.158;24.748;2022-09-29T06:57:50;98703.53;;;25.24;48.00
18527;BME280;9393;42.158;24.748;2022-09-29T07:00:53;98699.41;;;25.43;47.35
18527;BME280;9393;42.158;24.748;2022-09-29T07:03:56;98694.00;;;25.80;46.58
18527;BME280;9393;42.158;24.748;2022-09-29T07:07:01;98711.31;;;26.25;44.87
18527;BME280;9393;42.158;24.748;2022-09-29T07:10:05;98710.06;;;26.62;44.40
18527;BME280;9393;42.158;24.748;2022-09-29T07:13:10;98719.97;;;26.72;43.97
18527;BME280;9393;42.158;24.748;2022-09-29T07:16:13;98720.25;;;26.86;43.39
18527;BME280;9393;42.158;24.748;2022-09-29T07:19:17;98722.69;;;27.02;43.07
18527;BME280;9393;42.158;24.748;2022-09-29T07:22:20;98719.44;;;27.36;42.38
18527;BME280;9393;42.158;24.748;2022-09-29T07:25:24;98717.03;;;27.39;42.15
18527;BME280;9393;42.158;24.748;2022-09-29T07:28:49;98718.94;;;27.34;42.51
18527;BME280;9393;42.158;24.748;2022-09-29T07:31:52;98705.78;;;27.57;41.93
18527;BME280;9393;42.158;24.748;2022-09-29T07:34:56;98715.97;;;27.35;41.81
18527;BME280;9393;42.158;24.748;2022-09-29T07:37:59;98717.28;;;27.38;42.19
18527;BME280;9393;42.158;24.748;2022-09-29T07:41:04;98719.97;;;27.68;41.39
18527;BME280;9393;42.158;24.748;2022-09-29T07:44:09;98715.41;;;27.64;41.21
18527;BME280;9393;42.158;24.748;2022-09-29T07:47:13;98722.06;;;27.81;40.85
18527;BME280;9393;42.158;24.748;2022-09-29T07:50:16;98723.16;;;27.75;41.13
18527;BME280;9393;42.158;24.748;2022-09-29T07:53:19;98737.03;;;27.92;40.85
18527;BME280;9393;42.158;24.748;2022-09-29T07:56:23;98729.88;;;27.68;41.24
18527;BME280;9393;42.158;24.748;2022-09-29T07:59:27;98735.38;;;27.96;40.87
18527;BME280;9393;42.158;24.748;2022-09-29T08:02:31;98742.09;;;27.99;41.28
18527;BME280;9393;42.158;24.748;2022-09-29T08:05:34;98752.34;;;28.51;39.90
18527;BME280;9393;42.158;24.748;2022-09-29T08:08:39;98745.56;;;28.58;39.50
18527;BME280;9393;42.158;24.748;2022-09-29T08:11:51;98745.53;;;28.69;39.81
18527;BME280;9393;42.158;24.748;2022-09-29T08:15:09;98748.34;;;28.92;38.88
18527;BME280;9393;42.158;24.748;2022-09-29T08:18:13;98750.22;;;29.26;38.77
18527;BME280;9393;42.158;24.748;2022-09-29T08:21:16;98755.47;;;29.41;37.97
18527;BME280;9393;42.158;24.748;2022-09-29T08:24:19;98766.88;;;29.23;38.40
18527;BME280;9393;42.158;24.748;2022-09-29T08:27:23;98756.75;;;29.15;37.91
18527;BME280;9393;42.158;24.748;2022-09-29T08:30:27;98753.09;;;28.62;39.14
18527;BME280;9393;42.158;24.748;2022-09-29T08:33:31;98751.03;;;28.92;38.94
18527;BME280;9393;42.158;24.748;2022-09-29T08:36:35;98752.47;;;29.47;37.66
18527;BME280;9393;42.158;24.748;2022-09-29T08:39:38;98757.09;;;28.64;39.13
18527;BME280;9393;42.158;24.748;2022-09-29T08:42:52;98750.84;;;28.79;39.15
18527;BME280;9393;42.158;24.748;2022-09-29T08:46:05;98752.09;;;28.42;39.62
18527;BME280;9393;42.158;24.748;2022-09-29T08:49:15;98747.28;;;28.88;39.40
18527;BME280;9393;42.158;24.748;2022-09-29T08:52:34;98750.47;;;28.95;38.38
18527;BME280;9393;42.158;24.748;2022-09-29T08:55:54;98753.41;;;28.94;38.32
18527;BME280;9393;42.158;24.748;2022-09-29T08:58:59;98747.06;;;29.14;37.96
18527;BME280;9393;42.158;24.748;2022-09-29T09:02:17;98742.50;;;29.14;38.12
18527;BME280;9393;42.158;24.748;2022-09-29T09:05:39;98744.69;;;28.78;38.52
18527;BME280;9393;42.158;24.748;2022-09-29T09:12:38;98743.06;;;29.11;38.00
18527;BME280;9393;42.158;24.748;2022-09-29T09:16:00;98740.28;;;28.92;38.75
18527;BME280;9393;42.158;24.748;2022-09-29T09:22:49;98738.19;;;29.18;37.82
18527;BME280;9393;42.158;24.748;2022-09-29T09:25:58;98728.31;;;29.42;38.45
18527;BME280;9393;42.158;24.748;2022-09-29T09:29:06;98731.28;;;29.07;38.12
18527;BME280;9393;42.158;24.748;2022-09-29T09:32:16;98725.03;;;28.83;38.88
18527;BME280;9393;42.158;24.748;2022-09-29T09:35:35;98715.78;;;28.60;39.24
18527;BME280;9393;42.158;24.748;2022-09-29T09:38:59;98716.00;;;28.74;39.80
18527;BME280;9393;42.158;24.748;2022-09-29T09:42:12;98710.50;;;28.50;39.64
18527;BME280;9393;42.158;24.748;2022-09-29T09:45:24;98702.16;;;28.51;39.87
18527;BME280;9393;42.158;24.748;2022-09-29T09:48:32;98703.44;;;28.59;39.81
18527;BME280;9393;42.158;24.748;2022-09-29T09:51:46;98689.59;;;28.47;39.59
18527;BME280;9393;42.158;24.748;2022-09-29T09:54:53;98705.50;;;28.33;40.02
18527;BME280;9393;42.158;24.748;2022-09-29T09:58:17;98699.44;;;28.13;40.60
18527;BME280;9393;42.158;24.748;2022-09-29T10:01:26;98693.94;;;27.69;41.33
18527;BME280;9393;42.158;24.748;2022-09-29T10:04:30;98697.75;;;27.52;41.72
18527;BME280;9393;42.158;24.748;2022-09-29T10:07:36;98707.63;;;27.67;41.40
18527;BME280;9393;42.158;24.748;2022-09-29T10:10:42;98710.44;;;28.11;40.26
18527;BME280;9393;42.158;24.748;2022-09-29T10:14:02;98714.31;;;28.39;39.65
18527;BME280;9393;42.158;24.748;2022-09-29T10:17:07;98722.22;;;28.59;39.39
18527;BME280;9393;42.158;24.748;2022-09-29T10:20:30;98712.03;;;28.61;39.36
18527;BME280;9393;42.158;24.748;2022-09-29T10:23:37;98722.59;;;28.42;39.23
18527;BME280;9393;42.158;24.748;2022-09-29T10:26:50;98711.69;;;28.34;39.38
18527;BME280;9393;42.158;24.748;2022-09-29T10:30:17;98716.50;;;28.76;39.50
18527;BME280;9393;42.158;24.748;2022-09-29T10:33:25;98717.13;;;28.68;38.46
18527;BME280;9393;42.158;24.748;2022-09-29T10:36:31;98705.91;;;28.94;38.73
18527;BME280;9393;42.158;24.748;2022-09-29T10:39:41;98703.25;;;29.52;38.24
18527;BME280;9393;42.158;24.748;2022-09-29T10:42:47;98702.16;;;30.00;37.27
18527;BME280;9393;42.158;24.748;2022-09-29T10:45:52;98696.44;;;30.07;36.57
18527;BME280;9393;42.158;24.748;2022-09-29T10:49:12;98695.72;;;30.01;36.75
18527;BME280;9393;42.158;24.748;2022-09-29T10:52:21;98688.91;;;29.62;37.20
18527;BME280;9393;42.158;24.748;2022-09-29T10:55:29;98693.16;;;29.39;37.68
18527;BME280;9393;42.158;24.748;2022-09-29T10:58:36;98686.97;;;29.67;37.26
18527;BME280;9393;42.158;24.748;2022-09-29T11:02:03;98684.44;;;29.76;37.35
18527;BME280;9393;42.158;24.748;2022-09-29T11:05:16;98688.34;;;29.65;37.57
18527;BME280;9393;42.158;24.748;2022-09-29T11:08:59;98681.81;;;29.94;37.52
18527;BME280;9393;42.158;24.748;2022-09-29T11:12:25;98670.59;;;30.30;36.68
18527;BME280;9393;42.158;24.748;2022-09-29T11:15:38;98663.06;;;30.50;36.29
18527;BME280;9393;42.158;24.748;2022-09-29T11:18:46;98664.91;;;30.69;35.42
18527;BME280;9393;42.158;24.748;2022-09-29T11:29:22;98658.81;;;30.44;35.97
18527;BME280;9393;42.158;24.748;2022-09-29T11:32:40;98652.19;;;30.18;36.19
18527;BME280;9393;42.158;24.748;2022-09-29T11:35:51;98656.03;;;30.31;36.32
18527;BME280;9393;42.158;24.748;2022-09-29T11:39:03;98654.22;;;30.26;36.42
18527;BME280;9393;42.158;24.748;2022-09-29T11:42:26;98659.88;;;30.62;35.60
18527;BME280;9393;42.158;24.748;2022-09-29T11:45:37;98649.66;;;30.45;36.17
18527;BME280;9393;42.158;24.748;2022-09-29T11:48:56;98654.88;;;30.55;36.10
18527;BME280;9393;42.158;24.748;2022-09-29T11:52:23;98650.84;;;30.58;36.22
18527;BME280;9393;42.158;24.748;2022-09-29T11:55:46;98649.59;;;30.83;34.80
18527;BME280;9393;42.158;24.748;2022-09-29T11:59:06;98639.69;;;30.65;35.37
18527;BME280;9393;42.158;24.748;2022-09-29T12:02:32;98646.03;;;30.87;34.96
18527;BME280;9393;42.158;24.748;2022-09-29T12:05:56;98641.13;;;31.22;34.95
18527;BME280;9393;42.158;24.748;2022-09-29T12:09:20;98635.72;;;30.76;35.46
18527;BME280;9393;42.158;24.748;2022-09-29T12:12:31;98634.97;;;30.89;35.25
18527;BME280;9393;42.158;24.748;2022-09-29T12:15:48;98625.88;;;30.85;35.30
18527;BME280;9393;42.158;24.748;2022-09-29T12:18:56;98622.06;;;30.86;35.39
18527;BME280;9393;42.158;24.748;2022-09-29T12:22:02;98625.09;;;30.84;34.98
18527;BME280;9393;42.158;24.748;2022-09-29T12:25:12;98617.50;;;31.19;34.44
18527;BME280;9393;42.158;24.748;2022-09-29T12:28:22;98622.56;;;30.74;34.54
18527;BME280;9393;42.158;24.748;2022-09-29T12:31:31;98623.00;;;30.95;34.35
18527;BME280;9393;42.158;24.748;2022-09-29T12:34:42;98617.22;;;31.34;34.29
18527;BME280;9393;42.158;24.748;2022-09-29T12:37:48;98622.81;;;31.51;34.64
18527;BME280;9393;42.158;24.748;2022-09-29T12:41:04;98621.28;;;31.18;34.76
18527;BME280;9393;42.158;24.748;2022-09-29T12:44:15;98615.19;;;30.98;35.11
18527;BME280;9393;42.158;24.748;2022-09-29T12:47:39;98619.50;;;31.27;34.08
18527;BME280;9393;42.158;24.748;2022-09-29T12:50:49;98619.28;;;31.23;34.02
18527;BME280;9393;42.158;24.748;2022-09-29T12:54:04;98625.19;;;31.39;34.21
18527;BME280;9393;42.158;24.748;2022-09-29T12:57:16;98630.47;;;30.52;34.78
18527;BME280;9393;42.158;24.748;2022-09-29T13:00:20;98620.91;;;30.60;34.82
18527;BME280;9393;42.158;24.748;2022-09-29T13:07:40;98613.81;;;30.82;34.09
18527;BME280;9393;42.158;24.748;2022-09-29T13:10:59;98617.69;;;30.76;34.44
18527;BME280;9393;42.158;24.748;2022-09-29T13:14:16;98619.50;;;30.81;34.27
18527;BME280;9393;42.158;24.748;2022-09-29T13:17:31;98613.72;;;30.87;33.61
18527;BME280;9393;42.158;24.748;2022-09-29T13:20:57;98612.84;;;30.60;34.10
18527;BME280;9393;42.158;24.748;2022-09-29T13:24:34;98610.03;;;30.14;35.09
18527;BME280;9393;42.158;24.748;2022-09-29T13:27:46;98605.44;;;30.33;35.20
18527;BME280;9393;42.158;24.748;2022-09-29T13:30:51;98613.38;;;30.05;34.99
18527;BME280;9393;42.158;24.748;2022-09-29T13:33:58;98609.97;;;29.76;35.61
18527;BME280;9393;42.158;24.748;2022-09-29T13:37:11;98610.69;;;29.87;35.02
18527;BME280;9393;42.158;24.748;2022-09-29T13:40:20;98616.09;;;30.43;34.76
18527;BME280;9393;42.158;24.748;2022-09-29T13:43:36;98606.59;;;30.64;34.38
18527;BME280;9393;42.158;24.748;2022-09-29T13:46:40;98608.00;;;30.43;34.74
18527;BME280;9393;42.158;24.748;2022-09-29T13:49:43;98610.03;;;30.32;34.98
18527;BME280;9393;42.158;24.748;2022-09-29T13:52:46;98609.03;;;30.10;34.76
18527;BME280;9393;42.158;24.748;2022-09-29T13:55:53;98612.97;;;29.75;35.45
18527;BME280;9393;42.158;24.748;2022-09-29T13:58:58;98610.50;;;29.78;35.72
18527;BME280;9393;42.158;24.748;2022-09-29T14:02:17;98612.44;;;29.54;35.53
18527;BME280;9393;42.158;24.748;2022-09-29T14:05:42;98611.75;;;29.43;36.38
18527;BME280;9393;42.158;24.748;2022-09-29T14:08:49;98608.16;;;29.24;36.62
18527;BME280;9393;42.158;24.748;2022-09-29T14:11:56;98602.66;;;29.10;37.15
18527;BME280;9393;42.158;24.748;2022-09-29T14:15:06;98600.84;;;29.06;37.14
18527;BME280;9393;42.158;24.748;2022-09-29T14:18:15;98606.22;;;29.06;36.71
18527;BME280;9393;42.158;24.748;2022-09-29T14:21:49;98607.69;;;28.93;36.64
18527;BME280;9393;42.158;24.748;2022-09-29T14:24:54;98608.72;;;28.97;36.97
18527;BME280;9393;42.158;24.748;2022-09-29T14:28:02;98619.41;;;29.02;36.87
18527;BME280;9393;42.158;24.748;2022-09-29T14:31:19;98618.16;;;28.90;37.51
18527;BME280;9393;42.158;24.748;2022-09-29T14:34:26;98625.19;;;28.86;37.81
18527;BME280;9393;42.158;24.748;2022-09-29T14:37:30;98620.38;;;28.83;37.19
18527;BME280;9393;42.158;24.748;2022-09-29T14:40:34;98626.34;;;28.41;37.38
18527;BME280;9393;42.158;24.748;2022-09-29T14:43:41;98619.81;;;28.86;37.29
18527;BME280;9393;42.158;24.748;2022-09-29T14:47:02;98619.69;;;29.25;36.07
18527;BME280;9393;42.158;24.748;2022-09-29T14:50:34;98621.34;;;29.26;36.64
18527;BME280;9393;42.158;24.748;2022-09-29T14:54:03;98616.44;;;29.33;35.82
18527;BME280;9393;42.158;24.748;2022-09-29T14:57:22;98614.44;;;29.15;36.73
18527;BME280;9393;42.158;24.748;2022-09-29T15:00:46;98620.88;;;29.14;36.27
18527;BME280;9393;42.158;24.748;2022-09-29T15:03:54;98616.25;;;28.95;36.86
18527;BME280;9393;42.158;24.748;2022-09-29T15:07:03;98613.78;;;28.75;37.27
18527;BME280;9393;42.158;24.748;2022-09-29T15:10:19;98624.31;;;28.62;37.09
18527;BME280;9393;42.158;24.748;2022-09-29T15:13:24;98629.91;;;28.70;36.84
18527;BME280;9393;42.158;24.748;2022-09-29T15:16:45;98633.38;;;28.66;37.11
18527;BME280;9393;42.158;24.748;2022-09-29T15:19:59;98630.28;;;28.53;37.00
18527;BME280;9393;42.158;24.748;2022-09-29T15:23:19;98630.66;;;28.37;37.42
18527;BME280;9393;42.158;24.748;2022-09-29T15:26:31;98631.16;;;28.44;37.69
18527;BME280;9393;42.158;24.748;2022-09-29T15:29:35;98635.91;;;28.52;37.47
18527;BME280;9393;42.158;24.748;2022-09-29T15:32:40;98644.72;;;28.24;38.47
18527;BME280;9393;42.158;24.748;2022-09-29T15:35:45;98628.63;;;28.19;38.18
18527;BME280;9393;42.158;24.748;2022-09-29T15:38:52;98637.50;;;28.14;38.67
18527;BME280;9393;42.158;24.748;2022-09-29T15:41:59;98640.25;;;27.99;39.20
18527;BME280;9393;42.158;24.748;2022-09-29T15:45:14;98639.94;;;28.10;38.44
18527;BME280;9393;42.158;24.748;2022-09-29T15:48:20;98637.81;;;28.07;39.14
18527;BME280;9393;42.158;24.748;2022-09-29T15:51:23;98649.72;;;27.81;39.97
18527;BME280;9393;42.158;24.748;2022-09-29T15:54:29;98647.81;;;27.87;40.08
18527;BME280;9393;42.158;24.748;2022-09-29T15:57:43;98659.63;;;27.81;40.51
18527;BME280;9393;42.158;24.748;2022-09-29T16:00:56;98655.97;;;27.56;41.19
18527;BME280;9393;42.158;24.748;2022-09-29T16:04:02;98661.31;;;27.62;41.18
18527;BME280;9393;42.158;24.748;2022-09-29T16:07:13;98655.47;;;27.54;41.43
18527;BME280;9393;42.158;24.748;2022-09-29T16:10:21;98662.41;;;27.35;41.71
18527;BME280;9393;42.158;24.748;2022-09-29T16:13:28;98662.72;;;27.19;42.22
18527;BME280;9393;42.158;24.748;2022-09-29T16:16:36;98666.72;;;27.26;42.10
18527;BME280;9393;42.158;24.748;2022-09-29T16:19:44;98677.97;;;27.28;41.91
18527;BME280;9393;42.158;24.748;2022-09-29T16:22:49;98671.81;;;27.33;42.18
18527;BME280;9393;42.158;24.748;2022-09-29T16:26:08;98672.09;;;27.16;42.61
18527;BME280;9393;42.158;24.748;2022-09-29T16:29:29;98673.44;;;27.19;42.25
18527;BME280;9393;42.158;24.748;2022-09-29T16:32:36;98680.44;;;26.99;43.01
18527;BME280;9393;42.158;24.748;2022-09-29T16:35:54;98684.16;;;26.98;43.45
18527;BME280;9393;42.158;24.748;2022-09-29T16:38:58;98687.91;;;26.97;42.77
18527;BME280;9393;42.158;24.748;2022-09-29T16:42:02;98695.41;;;26.85;43.56
18527;BME280;9393;42.158;24.748;2022-09-29T16:45:13;98694.59;;;26.85;43.45
18527;BME280;9393;42.158;24.748;2022-09-29T16:48:18;98707.66;;;26.66;44.24
18527;BME280;9393;42.158;24.748;2022-09-29T16:51:23;98702.84;;;26.68;43.99
18527;BME280;9393;42.158;24.748;2022-09-29T16:54:41;98705.25;;;26.70;43.88
18527;BME280;9393;42.158;24.748;2022-09-29T16:57:54;98706.84;;;26.60;44.28
18527;BME280;9393;42.158;24.748;2022-09-29T17:00:58;98702.59;;;26.65;43.98